RKJK/KUV METAR and TAF weather

Enter ICAO airport designator
Station Type Date Time Source
RKJK METAR 2020/01/27 13:56 UTC NOAA

RKJK 271356Z AUTO 01008KT 10SM SCT085 04/04 A3003 RMK AO2 SLP174 P0001 T00430043 $


Station Type Date Time Source
RKJK Decoded METAR 2020/01/27 13:56 UTC NOAA

Kunsan Ab, Korea, South (RKJK) 35-55N 126-37E 10M
Jan 27, 2020 - 08:56 AM EST / 2020.01.27 1356 UTC
Wind: from the N (010 degrees) at 9 MPH (8 KT):0
Visibility: 10 mile(s):0
Sky conditions: partly cloudy
Precipitation last hour: 0.01 inches
Temperature: 39.7 F (4.3 C)
Dew Point: 39.7 F (4.3 C)
Relative Humidity: 100%
Pressure (altimeter): 30.03 in. Hg (1016 hPa)
ob: RKJK 271356Z AUTO 01008KT 10SM SCT085 04/04 A3003 RMK AO2 SLP174 P0001 T00430043
cycle: 14

Station Type Date Time Source
RKJK TAF 2020/01/27 12:21 UTC NOAA

TAF TAF
AMD RKJK 271216Z 2712/2813 02009KT 9000 -RA SCT015 QNH2999INS
BECMG 2715/2716 36009KT 9000 BR SCT035 QNH2998INS
BECMG 2810/2811 34006KT 9999 NSW SCT024 QNH3001INS TX07/2806Z TN04/2714Z

Example: see airport list